createdAt,value
2019-04-01T00:00:53.282Z,5.00
2019-04-01T00:02:04.027Z,4.98
2019-04-01T00:03:15.253Z,4.96
2019-04-01T00:04:26.499Z,4.96
2019-04-01T00:05:37.242Z,4.94
2019-04-01T00:06:47.978Z,4.92
2019-04-01T00:07:58.711Z,4.90
2019-04-01T00:09:09.455Z,4.89
2019-04-01T00:10:20.194Z,4.88
2019-04-01T00:11:30.931Z,4.87
2019-04-01T00:12:42.167Z,4.86
2019-04-01T00:13:53.406Z,4.83
2019-04-01T00:15:04.630Z,4.82
2019-04-01T00:16:15.862Z,4.81
2019-04-01T00:17:26.600Z,4.79
2019-04-01T00:18:37.332Z,4.78
2019-04-01T00:19:48.562Z,4.76
2019-04-01T00:21:00.309Z,4.75
2019-04-01T00:22:11.045Z,4.74
2019-04-01T00:23:21.777Z,4.74
2019-04-01T00:24:32.509Z,4.73
2019-04-01T00:25:43.746Z,4.73
2019-04-01T00:26:54.484Z,4.71
2019-04-01T00:28:05.218Z,4.71
2019-04-01T00:29:15.955Z,4.70
2019-04-01T00:30:27.684Z,4.69
2019-04-01T00:31:38.906Z,4.67
2019-04-01T00:32:50.129Z,4.67
2019-04-01T00:34:00.869Z,4.66
2019-04-01T00:35:12.106Z,4.64
2019-04-01T00:36:23.343Z,4.63
2019-04-01T00:37:34.562Z,4.62
2019-04-01T00:38:45.301Z,4.60
2019-04-01T00:39:56.045Z,4.58
2019-04-01T00:41:06.787Z,4.56
2019-04-01T00:42:17.524Z,4.52
2019-04-01T00:43:28.247Z,4.50
2019-04-01T00:44:40.491Z,4.48
2019-04-01T00:45:49.719Z,4.45
2019-04-01T00:47:00.448Z,4.42
2019-04-01T00:48:11.176Z,4.38
2019-04-01T00:49:22.399Z,4.36
2019-04-01T00:50:33.142Z,4.33
2019-04-01T00:51:43.863Z,4.30
2019-04-01T00:52:55.599Z,4.28
2019-04-01T00:54:06.812Z,4.25
2019-04-01T00:55:17.544Z,4.23
2019-04-01T00:56:28.761Z,4.20
2019-04-01T00:57:39.984Z,4.17
2019-04-01T00:58:50.708Z,4.14
2019-04-01T01:00:01.937Z,4.13
2019-04-01T01:01:12.667Z,4.10
2019-04-01T01:02:23.389Z,4.09
2019-04-01T01:03:34.125Z,4.07
2019-04-01T01:04:44.840Z,4.05
2019-04-01T01:05:56.054Z,4.04
2019-04-01T01:07:07.270Z,4.03
2019-04-01T01:08:18.000Z,4.02
2019-04-01T01:09:28.725Z,4.01
2019-04-01T01:10:39.447Z,4.01
2019-04-01T01:11:50.165Z,4.01
2019-04-01T01:13:00.882Z,4.01
2019-04-01T01:14:11.604Z,4.01
2019-04-01T01:15:22.335Z,4.01
2019-04-01T01:16:33.590Z,4.01
2019-04-01T01:17:44.316Z,4.02
2019-04-01T01:18:55.042Z,4.01
2019-04-01T01:20:06.291Z,4.01
2019-04-01T01:21:17.023Z,3.99
2019-04-01T01:22:27.748Z,3.99
2019-04-01T01:23:38.962Z,3.98
2019-04-01T01:24:50.193Z,3.98
2019-04-01T01:26:00.904Z,3.98
2019-04-01T01:27:11.628Z,3.98
2019-04-01T01:28:22.355Z,3.97
2019-04-01T01:29:33.067Z,3.96
2019-04-01T01:30:43.787Z,3.96
2019-04-01T01:31:54.495Z,3.95
2019-04-01T01:33:05.718Z,3.94
2019-04-01T01:34:16.438Z,3.93
2019-04-01T01:35:27.167Z,3.92
2019-04-01T01:36:37.892Z,3.91
2019-04-01T01:37:49.099Z,3.91
2019-04-01T01:39:00.305Z,3.89
2019-04-01T01:40:11.029Z,3.88
2019-04-01T01:41:21.751Z,3.87
2019-04-01T01:42:32.955Z,3.86
2019-04-01T01:43:43.673Z,3.86
2019-04-01T01:44:54.383Z,3.85
2019-04-01T01:46:05.105Z,3.85
2019-04-01T01:47:15.824Z,3.84
2019-04-01T01:48:27.597Z,3.83
2019-04-01T01:49:38.316Z,3.83
2019-04-01T01:50:49.029Z,3.82
2019-04-01T01:51:59.757Z,3.81
2019-04-01T01:53:10.467Z,3.80
2019-04-01T01:54:21.172Z,3.80
2019-04-01T01:55:31.892Z,3.79
2019-04-01T01:56:42.608Z,3.79
2019-04-01T01:57:53.340Z,3.77
2019-04-01T01:59:04.064Z,3.78
2019-04-01T02:00:14.777Z,3.77
2019-04-01T02:01:25.497Z,3.77
2019-04-01T02:02:36.207Z,3.77
2019-04-01T02:03:46.925Z,3.77
2019-04-01T02:04:57.642Z,3.77
2019-04-01T02:06:08.367Z,3.76
2019-04-01T02:07:19.079Z,3.76
2019-04-01T02:08:29.797Z,3.76
2019-04-01T02:09:40.521Z,3.76
2019-04-01T02:10:51.239Z,3.75
2019-04-01T02:12:01.952Z,3.74
2019-04-01T02:13:12.659Z,3.73
2019-04-01T02:14:23.367Z,3.72
2019-04-01T02:15:34.081Z,3.71
2019-04-01T02:16:44.804Z,3.71
2019-04-01T02:17:55.515Z,3.69
2019-04-01T02:19:06.222Z,3.67
2019-04-01T02:20:16.943Z,3.66
2019-04-01T02:21:28.316Z,3.64
2019-04-01T02:22:39.063Z,3.62
2019-04-01T02:23:49.750Z,3.60
2019-04-01T02:25:00.456Z,3.58
2019-04-01T02:26:11.662Z,3.57
2019-04-01T02:27:22.379Z,3.56
2019-04-01T02:28:33.088Z,3.55
2019-04-01T02:29:43.797Z,3.54
2019-04-01T02:30:54.504Z,3.53
2019-04-01T02:32:05.231Z,3.52
2019-04-01T02:33:15.947Z,3.52
2019-04-01T02:34:26.661Z,3.53
2019-04-01T02:35:37.893Z,3.52
2019-04-01T02:36:49.611Z,3.51
2019-04-01T02:38:00.315Z,3.50
2019-04-01T02:39:11.035Z,3.48
2019-04-01T02:40:22.456Z,3.46
2019-04-01T02:41:32.454Z,3.45
2019-04-01T02:42:43.176Z,3.43
2019-04-01T02:43:53.882Z,3.41
2019-04-01T02:45:04.605Z,3.41
2019-04-01T02:46:15.296Z,3.40
2019-04-01T02:47:26.017Z,3.38
2019-04-01T02:48:36.728Z,3.37
2019-04-01T02:49:47.918Z,3.36
2019-04-01T02:50:58.627Z,3.35
2019-04-01T02:52:09.351Z,3.34
2019-04-01T02:53:20.067Z,3.35
2019-04-01T02:54:31.245Z,3.34
2019-04-01T02:55:41.960Z,3.34
2019-04-01T02:56:53.150Z,3.34
2019-04-01T02:58:03.868Z,3.33
2019-04-01T02:59:14.569Z,3.32
2019-04-01T03:00:25.275Z,3.32
2019-04-01T03:01:35.986Z,3.32
2019-04-01T03:02:47.208Z,3.31
2019-04-01T03:03:57.913Z,3.31
2019-04-01T03:05:08.618Z,3.31
2019-04-01T03:06:19.318Z,3.31
2019-04-01T03:07:30.032Z,3.31
2019-04-01T03:08:40.737Z,3.30
2019-04-01T03:09:51.927Z,3.29
2019-04-01T03:11:02.757Z,3.29
2019-04-01T03:12:13.837Z,3.29
2019-04-01T03:13:24.538Z,3.28
2019-04-01T03:14:35.237Z,3.28
2019-04-01T03:15:46.422Z,3.29
2019-04-01T03:16:57.623Z,3.29
2019-04-01T03:18:08.335Z,3.28
2019-04-01T03:19:19.029Z,3.29
2019-04-01T03:20:29.733Z,3.30
2019-04-01T03:21:40.427Z,3.30
2019-04-01T03:22:51.633Z,3.32
2019-04-01T03:24:02.431Z,3.33
2019-04-01T03:25:13.026Z,3.33
2019-04-01T03:26:23.749Z,3.33
2019-04-01T03:27:34.436Z,3.33
2019-04-01T03:28:45.143Z,3.33
2019-04-01T03:29:55.851Z,3.32
2019-04-01T03:31:06.547Z,3.32
2019-04-01T03:32:17.754Z,3.31
2019-04-01T03:33:28.935Z,3.31
2019-04-01T03:34:39.646Z,3.30
2019-04-01T03:35:50.334Z,3.28
2019-04-01T03:37:01.028Z,3.27
2019-04-01T03:38:12.238Z,3.25
2019-04-01T03:39:22.930Z,3.23
2019-04-01T03:40:33.627Z,3.21
2019-04-01T03:41:44.349Z,3.20
2019-04-01T03:42:55.016Z,3.19
2019-04-01T03:44:05.729Z,3.17
2019-04-01T03:45:16.451Z,3.15
2019-04-01T03:46:27.140Z,3.14
2019-04-01T03:47:37.839Z,3.13
2019-04-01T03:48:48.547Z,3.10
2019-04-01T03:49:59.244Z,3.08
2019-04-01T03:51:10.427Z,3.08
2019-04-01T03:52:21.139Z,3.06
2019-04-01T03:53:31.859Z,3.05
2019-04-01T03:54:42.562Z,3.04
2019-04-01T03:55:53.726Z,3.03
2019-04-01T03:57:04.423Z,3.01
2019-04-01T03:58:15.129Z,3.00
2019-04-01T03:59:26.341Z,2.99
2019-04-01T04:00:37.048Z,2.98
2019-04-01T04:01:48.242Z,2.96
2019-04-01T04:02:58.948Z,2.95
2019-04-01T04:04:10.131Z,2.94
2019-04-01T04:05:20.878Z,2.92
2019-04-01T04:06:32.088Z,2.90
2019-04-01T04:07:42.791Z,2.89
2019-04-01T04:08:53.589Z,2.88
2019-04-01T04:10:04.286Z,2.88
2019-04-01T04:11:15.480Z,2.86
2019-04-01T04:12:26.192Z,2.85
2019-04-01T04:13:36.914Z,2.83
2019-04-01T04:14:51.074Z,2.82
2019-04-01T04:15:58.312Z,2.80
2019-04-01T04:17:08.994Z,2.78
2019-04-01T04:18:19.692Z,2.78
2019-04-01T04:19:30.904Z,2.79
2019-04-01T04:20:41.601Z,2.80
2019-04-01T04:21:52.789Z,2.82
2019-04-01T04:23:03.587Z,2.85
2019-04-01T04:24:14.291Z,2.87
2019-04-01T04:25:24.981Z,2.89
2019-04-01T04:26:36.182Z,2.91
2019-04-01T04:27:46.881Z,2.92
2019-04-01T04:28:57.577Z,2.93
2019-04-01T04:30:08.274Z,2.93
2019-04-01T04:31:19.468Z,2.93
2019-04-01T04:32:30.160Z,2.93
2019-04-01T04:33:40.848Z,2.93
2019-04-01T04:34:51.546Z,2.94
2019-04-01T04:36:02.742Z,2.93
2019-04-01T04:37:13.930Z,2.94
2019-04-01T04:38:24.629Z,2.94
2019-04-01T04:39:35.322Z,2.95
2019-04-01T04:40:46.057Z,2.93
2019-04-01T04:41:57.249Z,2.93
2019-04-01T04:43:07.934Z,2.93
2019-04-01T04:44:18.643Z,2.94
2019-04-01T04:45:29.342Z,2.93
2019-04-01T04:46:40.109Z,2.92
2019-04-01T04:47:50.811Z,2.91
2019-04-01T04:49:01.506Z,2.90
2019-04-01T04:50:12.688Z,2.89
2019-04-01T04:51:23.877Z,2.87
2019-04-01T04:52:34.574Z,2.85
2019-04-01T04:53:45.768Z,2.83
2019-04-01T04:54:56.949Z,2.81
2019-04-01T04:56:07.717Z,2.79
2019-04-01T04:57:20.372Z,2.75
2019-04-01T04:58:29.086Z,2.74
2019-04-01T04:59:40.276Z,2.71
2019-04-01T05:00:50.958Z,2.69
2019-04-01T05:02:02.157Z,2.66
2019-04-01T05:03:12.848Z,2.64
2019-04-01T05:04:23.608Z,2.63
2019-04-01T05:05:34.793Z,2.62
2019-04-01T05:06:45.604Z,2.61
2019-04-01T05:07:56.293Z,2.59
2019-04-01T05:09:07.596Z,2.59
2019-04-01T05:10:18.777Z,2.58
2019-04-01T05:11:29.618Z,2.57
2019-04-01T05:12:40.798Z,2.58
2019-04-01T05:13:51.609Z,2.58
2019-04-01T05:15:02.297Z,2.59
2019-04-01T05:16:12.984Z,2.59
2019-04-01T05:17:24.169Z,2.61
2019-04-01T05:18:35.364Z,2.62
2019-04-01T05:19:46.058Z,2.64
2019-04-01T05:20:56.741Z,2.65
2019-04-01T05:22:07.445Z,2.66
2019-04-01T05:23:18.149Z,2.68
2019-04-01T05:24:28.833Z,2.69
2019-04-01T05:25:39.523Z,2.71
2019-04-01T05:26:50.704Z,2.72
2019-04-01T05:28:01.394Z,2.75
2019-04-01T05:29:12.078Z,2.78
2019-04-01T05:30:22.766Z,2.79
2019-04-01T05:31:33.456Z,2.81
2019-04-01T05:32:44.157Z,2.83
2019-04-01T05:33:56.336Z,2.86
2019-04-01T05:35:07.055Z,2.89
2019-04-01T05:36:17.741Z,2.91
2019-04-01T05:37:28.449Z,2.94
2019-04-01T05:38:39.641Z,2.96
2019-04-01T05:39:50.828Z,2.99
2019-04-01T05:41:02.008Z,3.02
2019-04-01T05:42:12.715Z,3.04
2019-04-01T05:43:23.905Z,3.09
2019-04-01T05:44:34.595Z,3.14
2019-04-01T05:45:45.784Z,3.16
2019-04-01T05:46:57.624Z,3.20
2019-04-01T05:48:08.329Z,3.24
2019-04-01T05:49:19.581Z,3.28
2019-04-01T05:50:30.782Z,3.31
2019-04-01T05:51:41.980Z,3.35
2019-04-01T05:52:53.183Z,3.39
2019-04-01T05:54:03.888Z,3.42
2019-04-01T05:55:14.589Z,3.46
2019-04-01T05:56:25.785Z,3.51
2019-04-01T05:57:36.497Z,3.56
2019-04-01T05:58:47.212Z,3.60
2019-04-01T05:59:57.906Z,3.64
2019-04-01T06:01:08.600Z,3.69
2019-04-01T06:02:19.306Z,3.74
2019-04-01T06:03:30.012Z,3.79
2019-04-01T06:04:40.725Z,3.84
2019-04-01T06:05:51.420Z,3.87
2019-04-01T06:07:02.157Z,3.92
2019-04-01T06:08:12.860Z,3.95
2019-04-01T06:09:23.569Z,4.00
2019-04-01T06:10:34.266Z,4.05
2019-04-01T06:11:45.584Z,4.11
2019-04-01T06:12:56.293Z,4.14
2019-04-01T06:14:07.589Z,4.18
2019-04-01T06:15:18.293Z,4.23
2019-04-01T06:16:29.010Z,4.27
2019-04-01T06:17:39.719Z,4.32
2019-04-01T06:18:50.440Z,4.35
2019-04-01T06:20:01.150Z,4.41
2019-04-01T06:21:11.866Z,4.46
2019-04-01T06:22:22.564Z,4.50
2019-04-01T06:23:33.287Z,4.54
2019-04-01T06:24:43.994Z,4.59
2019-04-01T06:25:54.706Z,4.63
2019-04-01T06:27:05.902Z,4.66
2019-04-01T06:28:17.118Z,4.70
2019-04-01T06:29:27.830Z,4.74
2019-04-01T06:30:39.050Z,4.77
2019-04-01T06:31:49.769Z,4.81
2019-04-01T06:33:00.490Z,4.86
2019-04-01T06:34:11.729Z,4.89
2019-04-01T06:35:22.934Z,4.94
2019-04-01T06:36:33.659Z,4.98
2019-04-01T06:37:44.886Z,5.02
2019-04-01T06:38:55.606Z,5.06
2019-04-01T06:40:06.331Z,5.09
2019-04-01T06:41:18.552Z,5.14
2019-04-01T06:42:29.269Z,5.18
2019-04-01T06:43:40.998Z,5.22
2019-04-01T06:44:52.220Z,5.27
2019-04-01T06:46:02.938Z,5.32
2019-04-01T06:47:13.655Z,5.36
2019-04-01T06:48:24.896Z,5.40
2019-04-01T06:49:36.125Z,5.45
2019-04-01T06:50:46.855Z,5.49
2019-04-01T06:51:57.589Z,5.53
2019-04-01T06:53:09.319Z,5.58
2019-04-01T06:54:20.056Z,5.62
2019-04-01T06:55:31.273Z,5.67
2019-04-01T06:56:42.011Z,5.72
2019-04-01T06:57:53.240Z,5.75
2019-04-01T06:59:03.980Z,5.79
2019-04-01T07:00:15.718Z,5.85
2019-04-01T07:01:26.463Z,5.90
2019-04-01T07:02:37.204Z,5.93
2019-04-01T07:03:47.936Z,5.99
2019-04-01T07:04:59.676Z,6.05
2019-04-01T07:06:10.911Z,6.11
2019-04-01T07:07:21.663Z,6.16
2019-04-01T07:08:32.895Z,6.22
2019-04-01T07:09:44.135Z,6.29
2019-04-01T07:10:55.368Z,6.33
2019-04-01T07:12:06.116Z,6.40
2019-04-01T07:13:18.341Z,6.45
2019-04-01T07:14:29.085Z,6.50
2019-04-01T07:15:39.832Z,6.55
2019-04-01T07:16:50.587Z,6.61
2019-04-01T07:18:02.820Z,6.66
2019-04-01T07:19:13.576Z,6.71
2019-04-01T07:20:24.319Z,6.76
2019-04-01T07:21:35.062Z,6.82
2019-04-01T07:22:45.818Z,6.88
2019-04-01T07:23:56.567Z,6.96
2019-04-01T07:25:07.319Z,7.04
2019-04-01T07:26:19.073Z,7.10
2019-04-01T07:27:30.326Z,7.17
2019-04-01T07:28:41.588Z,7.22
2019-04-01T07:29:52.343Z,7.27
2019-04-01T07:31:03.087Z,7.32
2019-04-01T07:32:14.771Z,7.38
2019-04-01T07:33:25.599Z,7.43
2019-04-01T07:34:36.360Z,7.49
2019-04-01T07:35:47.624Z,7.54
2019-04-01T07:36:58.390Z,7.60
2019-04-01T07:38:09.389Z,7.69
2019-04-01T07:39:19.912Z,7.75
2019-04-01T07:40:31.185Z,7.81
2019-04-01T07:41:42.447Z,7.86
2019-04-01T07:42:53.380Z,7.91
2019-04-01T07:44:05.462Z,7.96
2019-04-01T07:45:16.239Z,8.00
2019-04-01T07:46:27.012Z,8.04
2019-04-01T07:47:39.275Z,8.08
2019-04-01T07:48:50.056Z,8.13
2019-04-01T07:50:00.827Z,8.17
2019-04-01T07:51:11.607Z,8.23
2019-04-01T07:52:22.383Z,8.31
2019-04-01T07:53:33.143Z,8.38
2019-04-01T07:54:44.407Z,8.44
2019-04-01T07:55:55.184Z,8.49
2019-04-01T07:57:05.963Z,8.53
2019-04-01T07:58:16.938Z,8.56
2019-04-01T07:59:27.715Z,8.62
2019-04-01T08:00:38.979Z,8.66
2019-04-01T08:01:52.667Z,8.71
2019-04-01T08:03:01.034Z,8.76
2019-04-01T08:04:11.819Z,8.81
2019-04-01T08:05:25.769Z,8.86
2019-04-01T08:06:33.400Z,8.93
2019-04-01T08:07:44.681Z,8.98
2019-04-01T08:08:55.661Z,9.02
2019-04-01T08:10:06.872Z,9.08
2019-04-01T08:11:18.663Z,9.15
2019-04-01T08:12:29.953Z,9.22
2019-04-01T08:13:40.743Z,9.27
2019-04-01T08:14:51.531Z,9.31
2019-04-01T08:16:02.482Z,9.37
2019-04-01T08:17:13.767Z,9.43
2019-04-01T08:18:24.581Z,9.50
2019-04-01T08:19:35.373Z,9.52
2019-04-01T08:20:46.170Z,9.57
2019-04-01T08:21:57.969Z,9.60
2019-04-01T08:23:08.776Z,9.65
2019-04-01T08:24:20.073Z,9.71
2019-04-01T08:25:30.870Z,9.78
2019-04-01T08:26:41.664Z,9.84
2019-04-01T08:27:52.554Z,9.91
2019-04-01T08:29:03.273Z,10.00
2019-04-01T08:30:14.070Z,10.07
2019-04-01T08:31:24.882Z,10.14
2019-04-01T08:32:35.684Z,10.21
2019-04-01T08:33:50.024Z,10.28
2019-04-01T08:34:57.297Z,10.35
2019-04-01T08:36:08.614Z,10.41
2019-04-01T08:37:19.441Z,10.51
2019-04-01T08:38:30.767Z,10.65
2019-04-01T08:39:41.576Z,10.93
2019-04-01T08:40:53.391Z,11.45
2019-04-01T08:42:04.710Z,12.54
2019-04-01T08:43:15.532Z,14.21
2019-04-01T08:44:26.354Z,16.16
2019-04-01T08:45:38.668Z,17.95
2019-04-01T08:46:49.999Z,19.38
2019-04-01T08:48:01.309Z,20.55
2019-04-01T08:49:12.141Z,21.52
2019-04-01T08:50:23.591Z,22.16
2019-04-01T08:51:34.432Z,22.45
2019-04-01T08:52:45.280Z,22.56
2019-04-01T08:53:56.611Z,22.38
2019-04-01T08:55:07.948Z,22.22
2019-04-01T08:56:18.790Z,22.09
2019-04-01T08:57:30.120Z,21.90
2019-04-01T08:58:41.587Z,21.68
2019-04-01T08:59:56.179Z,21.53
2019-04-01T09:01:03.793Z,21.44
2019-04-01T09:02:18.142Z,21.40
2019-04-01T09:03:26.024Z,21.44
2019-04-01T09:04:36.897Z,21.51
2019-04-01T09:05:47.799Z,21.58
2019-04-01T09:06:58.666Z,21.64
2019-04-01T09:08:10.042Z,21.69
2019-04-01T09:09:20.930Z,21.68
2019-04-01T09:10:32.304Z,21.66
2019-04-01T09:11:43.188Z,21.68
2019-04-01T09:12:54.092Z,21.79
2019-04-01T09:14:05.595Z,21.87
2019-04-01T09:15:16.989Z,21.94
2019-04-01T09:16:27.892Z,22.05
2019-04-01T09:17:40.444Z,22.11
2019-04-01T09:18:50.701Z,22.21
2019-04-01T09:20:02.125Z,22.27
2019-04-01T09:21:13.588Z,22.47
2019-04-01T09:22:24.553Z,22.77
2019-04-01T09:23:35.532Z,23.15
2019-04-01T09:24:46.537Z,23.62
2019-04-01T09:25:57.572Z,24.06
2019-04-01T09:27:09.123Z,24.64
2019-04-01T09:28:20.718Z,25.27
2019-04-01T09:29:33.332Z,25.88
2019-04-01T09:30:44.972Z,26.50
2019-04-01T09:31:56.638Z,26.92
2019-04-01T09:33:08.326Z,27.25
2019-04-01T09:34:19.553Z,27.74
2019-04-01T09:35:31.289Z,28.28
2019-04-01T09:36:42.547Z,28.70
2019-04-01T09:37:53.817Z,29.16
2019-04-01T09:39:05.625Z,29.58
2019-04-01T09:40:17.431Z,29.92
2019-04-01T09:41:28.763Z,30.20
2019-04-01T09:42:40.115Z,30.58
2019-04-01T09:43:51.945Z,30.95
2019-04-01T09:45:03.823Z,31.42
2019-04-01T09:46:15.711Z,31.87
2019-04-01T09:47:27.141Z,32.23
2019-04-01T09:48:38.575Z,32.66
2019-04-01T09:49:50.526Z,32.92
2019-04-01T09:51:02.493Z,33.19
2019-04-01T09:52:14.459Z,33.47
2019-04-01T09:53:26.426Z,33.57
2019-04-01T09:54:37.917Z,33.71
2019-04-01T09:55:49.428Z,33.83
2019-04-01T09:57:16.109Z,33.94
2019-04-01T09:58:12.955Z,34.04
2019-04-01T09:59:24.988Z,34.24
2019-04-01T10:00:36.528Z,34.50
2019-04-01T10:01:48.091Z,34.69
2019-04-01T10:02:59.674Z,34.88
2019-04-01T10:04:11.751Z,34.98
2019-04-01T10:05:23.327Z,35.01
2019-04-01T10:06:35.414Z,35.31
2019-04-01T10:07:47.161Z,35.74
2019-04-01T10:08:59.147Z,36.27
2019-04-01T10:10:11.274Z,36.70
2019-04-01T10:11:23.383Z,36.88
2019-04-01T10:12:35.005Z,37.12
2019-04-01T10:13:46.644Z,37.37
2019-04-01T10:14:58.290Z,37.65
2019-04-01T10:16:09.943Z,37.37
2019-04-01T10:17:21.609Z,37.03
2019-04-01T10:18:33.270Z,37.20
2019-04-01T10:19:45.435Z,37.62
2019-04-01T10:20:57.115Z,38.05
2019-04-01T10:22:08.805Z,38.38
2019-04-01T10:23:20.491Z,38.33
2019-04-01T10:24:32.178Z,38.30
2019-04-01T10:25:44.383Z,38.38
2019-04-01T10:26:56.093Z,38.57
2019-04-01T10:28:09.296Z,38.72
2019-04-01T10:29:21.585Z,39.00
2019-04-01T10:30:33.808Z,39.23
2019-04-01T10:31:46.036Z,39.35
2019-04-01T10:33:01.769Z,39.53
2019-04-01T10:34:10.498Z,39.75
2019-04-01T10:35:22.742Z,39.58
2019-04-01T10:36:34.497Z,39.55
2019-04-01T10:37:46.727Z,39.81
2019-04-01T10:38:58.474Z,40.01
2019-04-01T10:40:10.245Z,40.36
2019-04-01T10:41:22.509Z,40.58
2019-04-01T10:42:34.272Z,40.89
2019-04-01T10:43:46.533Z,41.01
2019-04-01T10:44:58.326Z,41.06
2019-04-01T10:46:12.349Z,40.44
2019-04-01T10:47:22.412Z,39.53
2019-04-01T10:48:34.210Z,38.89
2019-04-01T10:49:46.471Z,38.42
2019-04-01T10:50:58.224Z,38.08
2019-04-01T10:52:10.530Z,38.01
2019-04-01T10:53:22.798Z,37.86
2019-04-01T10:54:35.054Z,37.35
2019-04-01T10:55:46.852Z,37.36
2019-04-01T10:56:59.149Z,37.52
2019-04-01T10:58:11.413Z,37.26
2019-04-01T10:59:23.242Z,37.22
2019-04-01T11:00:35.627Z,37.37
2019-04-01T11:01:47.405Z,37.08
2019-04-01T11:02:59.182Z,36.77
2019-04-01T11:04:10.977Z,36.13
2019-04-01T11:05:23.347Z,35.34
2019-04-01T11:06:35.611Z,34.85
2019-04-01T11:07:47.561Z,35.20
2019-04-01T11:08:59.202Z,36.15
2019-04-01T11:10:11.858Z,37.46
2019-04-01T11:11:23.333Z,38.84
2019-04-01T11:12:35.627Z,39.75
2019-04-01T11:13:51.431Z,40.71
2019-04-01T11:14:59.755Z,40.99
2019-04-01T11:16:12.084Z,41.55
2019-04-01T11:17:24.412Z,42.14
2019-04-01T11:18:36.734Z,42.38
2019-04-01T11:19:48.589Z,42.62
2019-04-01T11:21:00.919Z,42.82
2019-04-01T11:22:12.779Z,43.37
2019-04-01T11:23:24.615Z,43.98
2019-04-01T11:24:36.474Z,44.12
2019-04-01T11:25:49.331Z,44.56
2019-04-01T11:27:01.688Z,45.08
2019-04-01T11:28:15.039Z,45.09
2019-04-01T11:29:27.397Z,44.49
2019-04-01T11:30:39.779Z,43.19
2019-04-01T11:31:52.175Z,42.00
2019-04-01T11:33:07.581Z,41.30
2019-04-01T11:34:16.386Z,40.82
2019-04-01T11:35:29.827Z,40.48
2019-04-01T11:36:42.279Z,40.62
2019-04-01T11:37:54.092Z,40.55
2019-04-01T11:39:05.979Z,40.34
2019-04-01T11:40:17.823Z,40.43
2019-04-01T11:41:29.756Z,40.57
2019-04-01T11:42:41.603Z,40.61
2019-04-01T11:43:54.011Z,40.55
2019-04-01T11:45:06.401Z,40.56
2019-04-01T11:46:18.786Z,40.52
2019-04-01T11:47:31.198Z,40.60
2019-04-01T11:48:43.597Z,40.42
2019-04-01T11:49:56.971Z,40.40
2019-04-01T11:51:08.938Z,40.71
2019-04-01T11:52:20.832Z,40.62
2019-04-01T11:53:32.746Z,40.55
2019-04-01T11:54:46.150Z,40.22
2019-04-01T11:55:58.568Z,39.93
2019-04-01T11:57:11.093Z,39.97
2019-04-01T11:58:23.876Z,40.03
2019-04-01T11:59:35.788Z,39.93
2019-04-01T12:00:47.694Z,39.36
2019-04-01T12:01:59.608Z,38.89
2019-04-01T12:03:12.011Z,38.59
2019-04-01T12:04:23.921Z,38.22
2019-04-01T12:05:35.825Z,37.91
2019-04-01T12:06:47.774Z,37.70
2019-04-01T12:08:00.178Z,37.72
2019-04-01T12:09:12.556Z,37.68
2019-04-01T12:10:24.957Z,37.68
2019-04-01T12:11:36.867Z,37.14
2019-04-01T12:12:49.253Z,36.59
2019-04-01T12:14:04.866Z,35.76
2019-04-01T12:15:13.376Z,34.69
2019-04-01T12:16:25.304Z,33.55
2019-04-01T12:17:41.230Z,32.49
2019-04-01T12:18:49.539Z,31.60
2019-04-01T12:20:01.421Z,30.57
2019-04-01T12:21:13.297Z,29.74
2019-04-01T12:22:25.177Z,29.33
2019-04-01T12:23:37.589Z,29.15
2019-04-01T12:24:49.964Z,29.28
2019-04-01T12:26:14.476Z,29.55
2019-04-01T12:27:14.194Z,29.84
2019-04-01T12:28:26.549Z,30.18
2019-04-01T12:29:38.410Z,30.65
2019-04-01T12:30:51.965Z,30.73
2019-04-01T12:32:03.134Z,30.58
2019-04-01T12:33:14.991Z,30.74
2019-04-01T12:34:27.330Z,31.07
2019-04-01T12:35:39.194Z,31.16
2019-04-01T12:36:51.606Z,31.26
2019-04-01T12:38:03.475Z,31.47
2019-04-01T12:39:15.463Z,31.44
2019-04-01T12:40:27.812Z,31.67
2019-04-01T12:41:39.667Z,31.98
2019-04-01T12:42:52.027Z,31.56
2019-04-01T12:44:04.871Z,31.25
2019-04-01T12:45:16.715Z,31.22
2019-04-01T12:46:28.565Z,31.07
2019-04-01T12:47:43.243Z,31.13
2019-04-01T12:48:52.754Z,31.17
2019-04-01T12:50:05.096Z,31.28
2019-04-01T12:51:17.423Z,31.48
2019-04-01T12:52:29.268Z,31.52
2019-04-01T12:53:41.104Z,31.77
2019-04-01T12:54:53.456Z,32.19
2019-04-01T12:56:05.796Z,32.20
2019-04-01T12:57:18.873Z,32.24
2019-04-01T12:58:29.997Z,32.01
2019-04-01T12:59:42.354Z,32.08
2019-04-01T13:00:54.183Z,32.27
2019-04-01T13:02:06.514Z,32.40
2019-04-01T13:03:18.975Z,32.42
2019-04-01T13:04:31.182Z,32.26
2019-04-01T13:05:43.017Z,32.11
2019-04-01T13:06:54.837Z,32.13
2019-04-01T13:08:07.185Z,32.16
2019-04-01T13:09:18.999Z,31.89
2019-04-01T13:10:31.306Z,31.70
2019-04-01T13:11:43.605Z,31.88
2019-04-01T13:12:55.430Z,31.80
2019-04-01T13:14:07.728Z,31.45
2019-04-01T13:15:19.550Z,31.47
2019-04-01T13:16:31.341Z,31.28
2019-04-01T13:17:43.648Z,31.19
2019-04-01T13:18:55.912Z,30.98
2019-04-01T13:20:07.706Z,30.94
2019-04-01T13:21:20.003Z,31.10
2019-04-01T13:22:32.310Z,31.40
2019-04-01T13:23:44.120Z,31.27
2019-04-01T13:24:56.404Z,31.10
2019-04-01T13:26:08.210Z,31.11
2019-04-01T13:27:20.508Z,31.09
2019-04-01T13:28:32.812Z,31.01
2019-04-01T13:29:44.611Z,30.71
2019-04-01T13:30:56.407Z,30.62
2019-04-01T13:32:08.714Z,30.65
2019-04-01T13:33:21.010Z,30.73
2019-04-01T13:34:32.798Z,30.80
2019-04-01T13:35:45.089Z,30.92
2019-04-01T13:36:57.486Z,30.85
2019-04-01T13:38:10.998Z,30.69
2019-04-01T13:39:21.071Z,30.53
2019-04-01T13:40:33.345Z,30.27
2019-04-01T13:41:45.800Z,30.12
2019-04-01T13:42:57.897Z,29.91
2019-04-01T13:44:10.157Z,29.87
2019-04-01T13:45:21.927Z,29.77
2019-04-01T13:46:34.197Z,29.67
2019-04-01T13:47:46.483Z,29.56
2019-04-01T13:49:03.228Z,29.47
2019-04-01T13:50:10.005Z,29.44
2019-04-01T13:51:21.752Z,29.34
2019-04-01T13:52:33.515Z,29.21
2019-04-01T13:53:46.756Z,29.24
2019-04-01T13:54:58.513Z,29.26
2019-04-01T13:56:12.512Z,29.22
2019-04-01T13:57:22.975Z,29.04
2019-04-01T13:58:35.216Z,28.72
2019-04-01T13:59:49.410Z,28.52
2019-04-01T14:00:59.690Z,28.32
2019-04-01T14:02:11.421Z,28.05
2019-04-01T14:03:24.638Z,28.08
2019-04-01T14:04:36.877Z,28.20
2019-04-01T14:05:48.589Z,27.81
2019-04-01T14:07:00.333Z,27.44
2019-04-01T14:08:12.046Z,27.38
2019-04-01T14:09:23.745Z,27.44
2019-04-01T14:10:35.936Z,27.31
2019-04-01T14:11:47.652Z,27.04
2019-04-01T14:12:59.844Z,26.74
2019-04-01T14:14:12.047Z,26.81
2019-04-01T14:15:24.239Z,26.87
2019-04-01T14:16:35.911Z,26.83
2019-04-01T14:17:48.071Z,26.74
2019-04-01T14:19:00.249Z,26.58
2019-04-01T14:20:11.907Z,26.45
2019-04-01T14:21:23.733Z,26.44
2019-04-01T14:22:35.701Z,26.44
2019-04-01T14:23:47.873Z,26.56
2019-04-01T14:25:00.033Z,26.69
2019-04-01T14:26:12.329Z,26.94
2019-04-01T14:27:23.823Z,27.19
2019-04-01T14:28:35.594Z,27.42
2019-04-01T14:29:47.724Z,27.47
2019-04-01T14:30:59.363Z,27.41
2019-04-01T14:32:11.597Z,27.40
2019-04-01T14:33:23.725Z,27.36
2019-04-01T14:34:36.853Z,27.31
2019-04-01T14:35:48.974Z,27.40
2019-04-01T14:37:01.094Z,27.76
2019-04-01T14:38:13.191Z,28.08
2019-04-01T14:39:25.319Z,28.30
2019-04-01T14:40:37.426Z,28.19
2019-04-01T14:41:49.105Z,28.12
2019-04-01T14:43:01.131Z,27.89
2019-04-01T14:44:13.223Z,27.72
2019-04-01T14:45:25.302Z,27.52
2019-04-01T14:46:37.379Z,27.31
2019-04-01T14:47:57.479Z,27.19
2019-04-01T14:49:02.922Z,26.95
2019-04-01T14:50:14.593Z,26.77
2019-04-01T14:51:26.642Z,26.58
2019-04-01T14:52:38.684Z,26.46
2019-04-01T14:53:50.735Z,26.25
2019-04-01T14:55:02.949Z,25.85
2019-04-01T14:56:14.777Z,25.49
2019-04-01T14:57:26.444Z,25.36
2019-04-01T14:58:38.302Z,25.23
2019-04-01T14:59:50.297Z,24.96
2019-04-01T15:01:01.836Z,24.72
2019-04-01T15:02:13.779Z,24.43
2019-04-01T15:03:25.759Z,24.28
2019-04-01T15:04:37.732Z,24.12
2019-04-01T15:05:49.415Z,23.89
2019-04-01T15:07:01.157Z,23.55
2019-04-01T15:08:13.104Z,23.10
2019-04-01T15:09:24.581Z,22.81
2019-04-01T15:10:36.520Z,22.57
2019-04-01T15:11:48.452Z,22.42
2019-04-01T15:13:05.589Z,22.29
2019-04-01T15:14:12.319Z,22.38
2019-04-01T15:15:24.226Z,22.35
2019-04-01T15:16:36.210Z,22.39
2019-04-01T15:17:48.037Z,22.50
2019-04-01T15:18:59.923Z,22.57
2019-04-01T15:20:12.814Z,22.61
2019-04-01T15:21:24.672Z,22.60
2019-04-01T15:22:36.544Z,22.51
2019-04-01T15:23:48.395Z,22.42
2019-04-01T15:25:00.234Z,22.35
2019-04-01T15:26:12.070Z,22.23
2019-04-01T15:27:23.888Z,22.02
2019-04-01T15:28:35.716Z,21.85
2019-04-01T15:29:47.596Z,21.72
2019-04-01T15:30:59.399Z,21.60
2019-04-01T15:32:11.196Z,21.52
2019-04-01T15:33:22.977Z,21.40
2019-04-01T15:34:34.762Z,21.29
2019-04-01T15:35:46.533Z,21.20